Time;durP1;ratioP1;P1;durP2;ratioP2;P2;SDS_P1;SDS_P2;PMS_P1;PMS_P2;Temp;Humidity;BMP_temperature;BMP_pressure;BME280_temperature;BME280_humidity;BME280_pressure;Samples;Min_cycle;Max_cycle;Signal;HPM_P1;HPM_P2
2022/01/16 10:03:35;;;;;;;29.73;11.48;;;;;;;;;;5123036;27;20384;-73
2022/01/16 10:06:11;;;;;;;27.10;12.40;;;;;;;;;;5097513;28;20055;-73
2022/01/16 10:08:39;;;;;;;31.25;11.70;;;;;;;;;;5101237;28;20446;-73
2022/01/16 10:11:28;;;;;;;31.38;11.57;;;;;;;;;;5102551;28;20091;-71
2022/01/16 10:13:58;;;;;;;37.13;12.38;;;;;;;;;;5103138;28;20051;-70
2022/01/16 10:16:27;;;;;;;39.47;11.70;;;;;;;;;;5101533;28;20487;-70
2022/01/16 10:18:54;;;;;;;31.77;12.00;;;;;;;;;;5104209;28;20126;-70
2022/01/16 10:21:33;;;;;;;32.22;12.88;;;;;;;;;;5094907;28;20501;-70
2022/01/16 10:24:00;;;;;;;39.00;12.88;;;;;;;;;;5102593;28;20483;-70
2022/01/16 10:26:28;;;;;;;38.45;12.35;;;;;;;;;;5101006;28;20047;-70
2022/01/16 10:28:56;;;;;;;34.10;11.60;;;;;;;;;;5097499;28;20044;-70
2022/01/16 10:31:25;;;;;;;35.47;11.80;;;;;;;;;;5089122;28;20043;-70
2022/01/16 10:33:55;;;;;;;33.65;11.77;;;;;;;;;;5100094;28;20044;-70
2022/01/16 10:36:36;;;;;;;30.77;11.63;;;;;;;;;;5085298;28;20137;-70
2022/01/16 10:39:05;;;;;;;29.80;11.30;;;;;;;;;;5087870;28;20064;-70
2022/01/16 10:41:32;;;;;;;39.00;10.80;;;;;;;;;;5101151;28;20044;-70
2022/01/16 10:44:00;;;;;;;32.92;10.82;;;;;;;;;;5091230;28;20558;-70
2022/01/16 10:46:27;;;;;;;31.17;11.02;;;;;;;;;;5097910;28;20135;-70
2022/01/16 10:49:09;;;;;;;35.25;10.00;;;;;;;;;;5100018;28;20086;-70
2022/01/16 10:51:38;;;;;;;24.52;8.25;;;;;;;;;;5096401;28;20055;-70
2022/01/16 10:54:20;;;;;;;26.52;8.15;;;;;;;;;;5095096;28;20044;-70
2022/01/16 10:56:48;;;;;;;27.67;8.07;;;;;;;;;;5106462;28;20055;-70
2022/01/16 10:59:22;;;;;;;33.75;8.25;;;;;;;;;;5101533;28;20058;-70
2022/01/16 11:02:04;;;;;;;28.88;8.57;;;;;;;;;;5092203;28;20126;-70
2022/01/16 11:04:31;;;;;;;28.15;7.85;;;;;;;;;;5095209;28;20052;-70
2022/01/16 11:07:03;;;;;;;33.65;7.65;;;;;;;;;;5096396;28;20052;-70
2022/01/16 11:09:31;;;;;;;26.83;7.75;;;;;;;;;;5099299;28;20044;-70
2022/01/16 11:11:59;;;;;;;36.33;9.15;;;;;;;;;;5097601;28;20052;-70
2022/01/16 11:14:27;;;;;;;31.17;8.48;;;;;;;;;;5084439;28;20639;-70
2022/01/16 11:16:54;;;;;;;28.70;7.93;;;;;;;;;;5084021;28;20052;-70
2022/01/16 11:19:24;;;;;;;29.05;8.75;;;;;;;;;;5084720;28;20047;-70
2022/01/16 11:21:54;;;;;;;35.33;8.27;;;;;;;;;;5083444;28;20493;-70
2022/01/16 11:24:33;;;;;;;24.45;8.57;;;;;;;;;;5086866;28;20051;-70
2022/01/16 11:27:00;;;;;;;29.10;7.63;;;;;;;;;;5084983;28;20125;-70
2022/01/16 11:29:29;;;;;;;24.65;7.80;;;;;;;;;;5079259;28;20047;-70
2022/01/16 11:31:56;;;;;;;28.33;7.65;;;;;;;;;;5086989;28;20102;-70
2022/01/16 11:34:23;;;;;;;29.38;7.55;;;;;;;;;;5083249;28;20055;-70
2022/01/16 11:36:51;;;;;;;26.30;7.80;;;;;;;;;;5079783;28;20066;-70
2022/01/16 11:39:18;;;;;;;27.55;7.88;;;;;;;;;;5083245;28;20060;-70
2022/01/16 11:41:53;;;;;;;23.00;8.40;;;;;;;;;;5080432;28;20048;-70
2022/01/16 11:44:24;;;;;;;23.40;7.57;;;;;;;;;;5079970;28;20071;-70
2022/01/16 11:46:52;;;;;;;25.63;7.60;;;;;;;;;;5079094;28;20146;-70
2022/01/16 11:49:32;;;;;;;25.67;7.57;;;;;;;;;;5080746;28;20043;-70
2022/01/16 11:52:05;;;;;;;23.88;7.78;;;;;;;;;;5083831;28;20055;-70
2022/01/16 11:54:40;;;;;;;25.88;8.52;;;;;;;;;;5088862;28;20060;-70
2022/01/16 11:57:18;;;;;;;29.63;7.88;;;;;;;;;;5079213;28;20044;-70
2022/01/16 11:59:46;;;;;;;26.30;8.32;;;;;;;;;;5087431;28;20988;-70
2022/01/16 12:02:21;;;;;;;24.92;8.27;;;;;;;;;;5084588;28;20102;-71
2022/01/16 12:05:06;;;;;;;24.45;7.88;;;;;;;;;;5081791;28;20049;-71
2022/01/16 12:07:46;;;;;;;26.27;8.43;;;;;;;;;;5085697;28;20040;-71
2022/01/16 12:10:14;;;;;;;26.15;8.23;;;;;;;;;;5079167;28;20056;-71
2022/01/16 12:12:43;;;;;;;25.75;8.13;;;;;;;;;;5080137;28;20063;-71
2022/01/16 12:15:11;;;;;;;22.25;8.15;;;;;;;;;;5083257;28;20510;-71
2022/01/16 12:17:46;;;;;;;26.98;7.82;;;;;;;;;;5080546;28;20381;-71
2022/01/16 12:20:25;;;;;;;23.38;7.07;;;;;;;;;;5082697;28;20052;-71
2022/01/16 12:22:53;;;;;;;30.30;7.82;;;;;;;;;;5078724;28;20044;-71
2022/01/16 12:25:21;;;;;;;22.85;7.00;;;;;;;;;;5078236;28;20044;-71
2022/01/16 12:27:51;;;;;;;25.95;6.65;;;;;;;;;;5075808;28;20062;-71
2022/01/16 12:30:23;;;;;;;22.20;7.00;;;;;;;;;;5088082;28;20052;-71
2022/01/16 12:32:51;;;;;;;30.58;7.07;;;;;;;;;;5084132;28;20505;-71
2022/01/16 12:35:34;;;;;;;23.95;6.70;;;;;;;;;;5084805;28;20125;-71
2022/01/16 12:38:06;;;;;;;24.27;6.60;;;;;;;;;;5082765;28;20051;-71
2022/01/16 12:40:33;;;;;;;32.85;7.57;;;;;;;;;;5080290;28;20375;-71
2022/01/16 12:43:04;;;;;;;16.33;6.13;;;;;;;;;;5074605;28;20578;-71
2022/01/16 12:45:36;;;;;;;27.48;6.53;;;;;;;;;;5081084;28;20071;-70
2022/01/16 12:48:04;;;;;;;22.43;6.70;;;;;;;;;;5081698;28;20063;-70
2022/01/16 12:50:31;;;;;;;25.42;6.47;;;;;;;;;;5079021;28;20797;-70
2022/01/16 12:52:58;;;;;;;29.67;7.15;;;;;;;;;;5082120;28;20540;-70
2022/01/16 12:55:27;;;;;;;24.33;7.25;;;;;;;;;;5078085;28;20049;-71
2022/01/16 12:57:54;;;;;;;28.27;7.53;;;;;;;;;;5086537;28;20503;-71
2022/01/16 13:00:23;;;;;;;29.98;7.43;;;;;;;;;;5085770;28;20400;-71
2022/01/16 13:02:53;;;;;;;38.42;7.70;;;;;;;;;;5081058;28;20047;-71
2022/01/16 13:05:21;;;;;;;29.17;7.00;;;;;;;;;;5089499;28;20515;-71
2022/01/16 13:07:48;;;;;;;34.50;9.57;;;;;;;;;;5076194;28;20144;-71
2022/01/16 13:10:15;;;;;;;34.58;8.05;;;;;;;;;;5070966;28;20105;-71
2022/01/16 13:12:44;;;;;;;26.63;8.27;;;;;;;;;;5084603;28;20048;-71
2022/01/16 13:15:12;;;;;;;26.35;8.40;;;;;;;;;;5079604;28;20040;-71
2022/01/16 13:17:40;;;;;;;37.25;8.98;;;;;;;;;;5086751;28;21079;-71
2022/01/16 13:20:14;;;;;;;36.13;8.40;;;;;;;;;;5077876;28;20528;-71
2022/01/16 13:22:41;;;;;;;21.75;7.93;;;;;;;;;;5079622;28;20131;-71
2022/01/16 13:25:10;;;;;;;33.90;8.93;;;;;;;;;;5079614;28;20056;-71
2022/01/16 13:27:38;;;;;;;34.25;9.13;;;;;;;;;;5077999;28;20087;-71
2022/01/16 13:30:07;;;;;;;33.08;10.73;;;;;;;;;;5081315;28;20506;-71
2022/01/16 13:32:36;;;;;;;35.92;9.95;;;;;;;;;;5076458;28;20055;-71
2022/01/16 13:35:05;;;;;;;31.70;9.85;;;;;;;;;;5081609;28;20378;-71
2022/01/16 13:37:33;;;;;;;36.80;10.27;;;;;;;;;;5074512;28;20052;-71
2022/01/16 13:40:02;;;;;;;33.50;10.43;;;;;;;;;;5077592;28;20048;-71
2022/01/16 13:42:40;;;;;;;35.78;12.43;;;;;;;;;;5077223;28;20048;-71
2022/01/16 13:45:17;;;;;;;35.13;11.35;;;;;;;;;;5082964;28;20399;-71
2022/01/16 13:47:52;;;;;;;40.45;11.05;;;;;;;;;;5082166;28;20125;-71
2022/01/16 13:50:22;;;;;;;32.83;11.50;;;;;;;;;;5082027;28;20084;-71
2022/01/16 13:52:53;;;;;;;36.80;12.65;;;;;;;;;;5078739;28;20411;-70
2022/01/16 13:55:21;;;;;;;41.33;13.55;;;;;;;;;;5078489;28;20443;-70
2022/01/16 13:57:48;;;;;;;46.47;14.73;;;;;;;;;;5081006;28;20059;-70
2022/01/16 14:00:17;;;;;;;38.58;13.90;;;;;;;;;;5083798;28;20089;-70
2022/01/16 14:02:44;;;;;;;37.03;14.15;;;;;;;;;;5080593;28;20408;-70
2022/01/16 14:05:22;;;;;;;49.95;13.88;;;;;;;;;;5078638;28;20455;-70
2022/01/16 14:07:51;;;;;;;46.90;14.23;;;;;;;;;;5084158;28;20201;-70
2022/01/16 14:10:37;;;;;;;50.42;14.90;;;;;;;;;;5076900;28;20071;-70
2022/01/16 14:13:04;;;;;;;44.05;15.63;;;;;;;;;;5074788;28;20083;-71
2022/01/16 14:15:31;;;;;;;45.92;15.45;;;;;;;;;;5082046;28;20055;-71
2022/01/16 14:18:06;;;;;;;41.28;15.70;;;;;;;;;;5079347;28;20084;-71
2022/01/16 14:21:58;;;;;;;43.00;14.13;;;;;;;;;;5073351;28;20102;-71
2022/01/16 14:23:42;;;;;;;41.92;14.93;;;;;;;;;;5075805;28;20055;-70
2022/01/16 14:26:09;;;;;;;38.92;15.23;;;;;;;;;;5077876;28;20063;-70
2022/01/16 14:28:36;;;;;;;34.85;14.98;;;;;;;;;;5074655;28;20049;-70
2022/01/16 14:31:04;;;;;;;34.95;13.85;;;;;;;;;;5080358;28;20521;-71
2022/01/16 14:33:31;;;;;;;45.78;15.93;;;;;;;;;;5075691;28;20060;-72
2022/01/16 14:35:58;;;;;;;40.75;15.75;;;;;;;;;;5072729;28;20055;-71
2022/01/16 14:38:25;;;;;;;43.08;16.25;;;;;;;;;;5072885;28;20437;-71
2022/01/16 14:40:55;;;;;;;53.47;14.50;;;;;;;;;;5073000;28;20056;-71
2022/01/16 14:43:23;;;;;;;37.30;13.63;;;;;;;;;;5075401;28;20044;-70
2022/01/16 14:45:51;;;;;;;32.30;12.80;;;;;;;;;;5079743;28;20047;-70
2022/01/16 14:48:18;;;;;;;34.15;14.77;;;;;;;;;;5076305;28;20468;-69
2022/01/16 14:50:45;;;;;;;39.25;14.10;;;;;;;;;;5079702;28;20051;-69
2022/01/16 14:53:13;;;;;;;41.22;13.63;;;;;;;;;;5082802;28;20052;-69
2022/01/16 14:55:40;;;;;;;39.10;14.68;;;;;;;;;;5080753;28;20040;-69
2022/01/16 14:58:08;;;;;;;44.45;13.48;;;;;;;;;;5081044;28;20056;-69
2022/01/16 15:00:36;;;;;;;40.13;13.98;;;;;;;;;;5079768;28;20105;-69
2022/01/16 15:03:03;;;;;;;32.25;13.50;;;;;;;;;;5075980;28;20105;-69
2022/01/16 15:05:30;;;;;;;35.83;14.02;;;;;;;;;;5082540;28;20056;-69
2022/01/16 15:07:57;;;;;;;37.85;13.18;;;;;;;;;;5073550;28;20381;-68
2022/01/16 15:10:30;;;;;;;33.35;12.05;;;;;;;;;;5077802;28;20047;-69
2022/01/16 15:12:57;;;;;;;34.63;12.60;;;;;;;;;;5077534;28;20101;-69
2022/01/16 15:15:26;;;;;;;37.35;12.90;;;;;;;;;;5085962;28;20105;-68
2022/01/16 15:17:56;;;;;;;34.95;13.27;;;;;;;;;;5077442;28;20101;-68
2022/01/16 15:20:28;;;;;;;31.52;12.63;;;;;;;;;;5076854;28;20062;-68
2022/01/16 15:22:56;;;;;;;43.13;13.60;;;;;;;;;;5073178;28;20048;-69
2022/01/16 15:25:24;;;;;;;32.65;12.05;;;;;;;;;;5080740;28;20522;-69
2022/01/16 15:27:51;;;;;;;32.97;12.43;;;;;;;;;;5077725;28;20048;-69
2022/01/16 15:30:19;;;;;;;32.45;12.05;;;;;;;;;;5077476;28;20071;-69
2022/01/16 15:32:48;;;;;;;27.40;11.55;;;;;;;;;;5078835;28;20048;-70
2022/01/16 15:35:16;;;;;;;39.88;12.20;;;;;;;;;;5075743;28;20464;-70
2022/01/16 15:37:44;;;;;;;36.38;12.23;;;;;;;;;;5080826;28;20578;-69
2022/01/16 15:40:13;;;;;;;41.88;11.13;;;;;;;;;;5076454;28;20055;-70
2022/01/16 15:42:41;;;;;;;37.83;11.63;;;;;;;;;;5073500;28;20052;-69
2022/01/16 15:45:09;;;;;;;36.65;12.93;;;;;;;;;;5079675;28;20056;-69
2022/01/16 15:47:36;;;;;;;34.30;11.05;;;;;;;;;;5075415;28;20138;-69
2022/01/16 15:50:05;;;;;;;34.15;10.20;;;;;;;;;;5077235;28;20464;-69
2022/01/16 15:52:32;;;;;;;30.50;10.48;;;;;;;;;;5077233;28;20121;-69
2022/01/16 15:55:00;;;;;;;39.90;11.32;;;;;;;;;;5072855;28;20125;-69
2022/01/16 15:57:27;;;;;;;29.15;9.73;;;;;;;;;;5074452;28;20105;-69
2022/01/16 15:59:54;;;;;;;32.83;12.15;;;;;;;;;;5077036;28;20081;-69
2022/01/16 16:02:21;;;;;;;32.97;9.93;;;;;;;;;;5074506;28;20060;-69
2022/01/16 16:04:49;;;;;;;37.10;10.18;;;;;;;;;;5072442;28;20396;-69
2022/01/16 16:07:17;;;;;;;36.92;10.88;;;;;;;;;;5077134;28;20063;-70
2022/01/16 16:09:44;;;;;;;36.58;10.75;;;;;;;;;;5075062;28;20101;-69
2022/01/16 16:12:12;;;;;;;38.92;10.20;;;;;;;;;;5074587;28;20048;-69
2022/01/16 16:14:39;;;;;;;35.97;10.30;;;;;;;;;;5073319;28;20049;-69
2022/01/16 16:17:06;;;;;;;36.15;10.68;;;;;;;;;;5076350;28;20071;-69
2022/01/16 16:19:33;;;;;;;38.65;13.20;;;;;;;;;;5078682;28;20059;-69
2022/01/16 16:22:01;;;;;;;36.78;9.90;;;;;;;;;;5080355;28;20109;-69
2022/01/16 16:24:29;;;;;;;48.10;10.65;;;;;;;;;;5083612;28;20126;-69
2022/01/16 16:26:56;;;;;;;43.15;10.38;;;;;;;;;;5077690;28;20129;-69
2022/01/16 16:29:24;;;;;;;37.13;8.75;;;;;;;;;;5081395;28;20076;-69
2022/01/16 16:31:51;;;;;;;40.75;9.82;;;;;;;;;;5079235;28;20090;-69
2022/01/16 16:34:18;;;;;;;37.92;9.13;;;;;;;;;;5080748;28;20059;-70
2022/01/16 16:36:45;;;;;;;44.05;10.50;;;;;;;;;;5082414;28;20053;-69
2022/01/16 16:39:12;;;;;;;44.53;10.43;;;;;;;;;;5075318;28;20120;-69
2022/01/16 16:41:45;;;;;;;57.03;10.82;;;;;;;;;;5079152;28;20540;-69
2022/01/16 16:44:14;;;;;;;48.15;11.13;;;;;;;;;;5078567;28;20149;-69
2022/01/16 16:46:42;;;;;;;35.88;9.93;;;;;;;;;;5081375;28;20048;-69
2022/01/16 16:49:09;;;;;;;36.85;10.35;;;;;;;;;;5077611;28;20071;-69
2022/01/16 16:51:36;;;;;;;38.35;8.68;;;;;;;;;;5082402;28;20060;-69
2022/01/16 16:54:04;;;;;;;30.98;9.80;;;;;;;;;;5082852;28;20070;-69
2022/01/16 16:56:31;;;;;;;29.52;9.52;;;;;;;;;;5076637;28;20120;-69
2022/01/16 16:59:00;;;;;;;34.00;9.10;;;;;;;;;;5077968;28;20548;-69
2022/01/16 17:01:27;;;;;;;39.78;10.10;;;;;;;;;;5075074;28;20069;-69
2022/01/16 17:03:54;;;;;;;37.88;9.90;;;;;;;;;;5077031;28;20124;-69
2022/01/16 17:06:21;;;;;;;44.22;11.27;;;;;;;;;;5079569;28;20036;-69
2022/01/16 17:08:48;;;;;;;44.00;9.98;;;;;;;;;;5077730;28;20113;-70
2022/01/16 17:11:19;;;;;;;46.45;10.52;;;;;;;;;;5078569;28;20063;-69
2022/01/16 17:13:46;;;;;;;44.72;10.20;;;;;;;;;;5081622;28;20123;-69
2022/01/16 17:16:15;;;;;;;40.42;10.40;;;;;;;;;;5084475;28;20116;-70
2022/01/16 17:18:43;;;;;;;43.60;9.85;;;;;;;;;;5078628;28;20052;-69
2022/01/16 17:21:10;;;;;;;52.00;10.82;;;;;;;;;;5077656;28;20056;-69
2022/01/16 17:23:37;;;;;;;42.92;10.60;;;;;;;;;;5077545;28;20124;-69
2022/01/16 17:26:06;;;;;;;51.60;10.60;;;;;;;;;;5077524;28;20063;-71
2022/01/16 17:28:33;;;;;;;52.97;13.02;;;;;;;;;;5078675;28;21480;-70
2022/01/16 17:31:01;;;;;;;52.05;10.52;;;;;;;;;;5074368;28;20056;-69
2022/01/16 17:33:29;;;;;;;53.22;9.65;;;;;;;;;;5076947;28;20446;-69
2022/01/16 17:35:57;;;;;;;49.70;8.52;;;;;;;;;;5074602;28;20056;-69
2022/01/16 17:38:24;;;;;;;54.20;10.68;;;;;;;;;;5077001;28;20052;-69
2022/01/16 17:40:51;;;;;;;45.28;8.15;;;;;;;;;;5074234;28;20453;-69
2022/01/16 17:43:18;;;;;;;46.65;8.30;;;;;;;;;;5073841;28;20052;-69
2022/01/16 17:45:46;;;;;;;52.15;7.20;;;;;;;;;;5076294;28;20104;-69
2022/01/16 17:48:13;;;;;;;61.65;8.35;;;;;;;;;;5079550;28;20067;-69
2022/01/16 17:50:42;;;;;;;45.88;7.93;;;;;;;;;;5075441;28;20076;-69
2022/01/16 17:53:09;;;;;;;59.70;7.28;;;;;;;;;;5078299;28;20074;-69
2022/01/16 17:55:37;;;;;;;56.13;8.93;;;;;;;;;;5079571;28;20131;-69
2022/01/16 17:58:04;;;;;;;55.92;7.05;;;;;;;;;;5075007;28;20056;-69
2022/01/16 18:00:31;;;;;;;64.97;7.00;;;;;;;;;;5077331;28;20080;-69
2022/01/16 18:02:59;;;;;;;45.30;8.07;;;;;;;;;;5074888;28;20083;-69
2022/01/16 18:05:27;;;;;;;59.13;7.55;;;;;;;;;;5072002;28;20048;-69
2022/01/16 18:07:55;;;;;;;55.35;7.45;;;;;;;;;;5072954;28;20048;-69
2022/01/16 18:10:22;;;;;;;54.00;6.75;;;;;;;;;;5074751;28;20092;-69
2022/01/16 18:12:49;;;;;;;46.10;6.32;;;;;;;;;;5072333;28;20060;-69
2022/01/16 18:15:17;;;;;;;46.05;5.78;;;;;;;;;;5075035;28;20055;-69
2022/01/16 18:17:44;;;;;;;46.80;8.90;;;;;;;;;;5070582;28;20052;-69
2022/01/16 18:20:11;;;;;;;51.53;10.30;;;;;;;;;;5071825;28;20048;-70
2022/01/16 18:22:38;;;;;;;44.45;8.52;;;;;;;;;;5068396;28;20048;-69
2022/01/16 18:25:07;;;;;;;55.45;11.75;;;;;;;;;;5074121;28;20051;-69
2022/01/16 18:27:35;;;;;;;50.92;7.20;;;;;;;;;;5080076;28;20101;-69
2022/01/16 18:30:02;;;;;;;46.42;7.00;;;;;;;;;;5081269;28;20052;-69
2022/01/16 18:32:29;;;;;;;44.15;6.20;;;;;;;;;;5078311;28;20052;-70
2022/01/16 18:34:57;;;;;;;37.28;5.35;;;;;;;;;;5083925;28;20048;-70
2022/01/16 18:37:24;;;;;;;47.50;6.22;;;;;;;;;;5082499;28;20056;-69
2022/01/16 18:39:51;;;;;;;42.42;5.55;;;;;;;;;;5085624;28;20636;-69
2022/01/16 18:42:20;;;;;;;47.70;5.07;;;;;;;;;;5080285;28;20044;-69
2022/01/16 18:44:49;;;;;;;40.92;6.40;;;;;;;;;;5077763;28;20132;-69
2022/01/16 18:47:19;;;;;;;37.75;4.47;;;;;;;;;;5083218;28;20506;-69
2022/01/16 18:49:46;;;;;;;30.98;4.57;;;;;;;;;;5079834;28;20121;-69
2022/01/16 18:52:13;;;;;;;32.33;4.03;;;;;;;;;;5082026;28;20059;-69
2022/01/16 18:54:40;;;;;;;27.75;3.30;;;;;;;;;;5089098;28;20570;-69
2022/01/16 18:57:08;;;;;;;26.95;4.28;;;;;;;;;;5082982;28;20051;-69
2022/01/16 18:59:36;;;;;;;29.90;4.80;;;;;;;;;;5084858;28;20048;-69
2022/01/16 19:02:05;;;;;;;28.55;3.60;;;;;;;;;;5082586;28;20517;-69
2022/01/16 19:04:32;;;;;;;16.35;3.15;;;;;;;;;;5072241;28;20086;-69
2022/01/16 19:06:59;;;;;;;16.10;2.50;;;;;;;;;;5076361;28;20044;-69
2022/01/16 19:09:28;;;;;;;13.20;2.90;;;;;;;;;;5079113;28;20380;-69
2022/01/16 19:11:55;;;;;;;18.65;4.75;;;;;;;;;;5084136;28;20548;-69
2022/01/16 19:14:22;;;;;;;18.58;4.35;;;;;;;;;;5080781;28;20044;-69
2022/01/16 19:16:53;;;;;;;9.60;1.63;;;;;;;;;;5072897;28;20056;-69
2022/01/16 19:19:20;;;;;;;12.63;3.28;;;;;;;;;;5077944;28;20109;-68
2022/01/16 19:21:48;;;;;;;14.98;3.83;;;;;;;;;;5077205;28;20044;-68
2022/01/16 19:24:15;;;;;;;15.82;2.50;;;;;;;;;;5076133;28;20052;-68
2022/01/16 19:26:42;;;;;;;11.73;2.53;;;;;;;;;;5080991;28;20511;-68
2022/01/16 19:29:09;;;;;;;18.45;3.00;;;;;;;;;;5081025;28;20055;-69
2022/01/16 19:31:37;;;;;;;20.02;3.75;;;;;;;;;;5078380;28;20052;-69
2022/01/16 19:34:05;;;;;;;12.50;2.63;;;;;;;;;;5084768;28;20048;-69
2022/01/16 19:36:33;;;;;;;14.65;2.17;;;;;;;;;;5075542;28;20556;-69
2022/01/16 19:39:00;;;;;;;10.45;1.73;;;;;;;;;;5080966;28;20131;-69
2022/01/16 19:41:28;;;;;;;14.00;2.22;;;;;;;;;;5082333;28;20051;-69
2022/01/16 19:43:55;;;;;;;17.13;2.00;;;;;;;;;;5078118;28;20059;-69
2022/01/16 19:46:23;;;;;;;13.95;2.30;;;;;;;;;;5080205;28;20117;-69
2022/01/16 19:48:52;;;;;;;12.70;1.88;;;;;;;;;;5079883;28;20060;-69
2022/01/16 19:51:22;;;;;;;16.08;2.03;;;;;;;;;;5092163;28;20061;-69
2022/01/16 19:53:50;;;;;;;18.33;2.85;;;;;;;;;;5078337;28;20547;-69
2022/01/16 19:56:17;;;;;;;24.13;2.70;;;;;;;;;;5077085;28;20154;-69
2022/01/16 19:58:45;;;;;;;17.85;2.97;;;;;;;;;;5075086;28;20044;-69
2022/01/16 20:01:12;;;;;;;19.88;3.03;;;;;;;;;;5075556;28;20064;-69
2022/01/16 20:03:40;;;;;;;21.60;2.97;;;;;;;;;;5072861;28;20051;-69
2022/01/16 20:06:07;;;;;;;22.55;3.00;;;;;;;;;;5074963;28;20407;-69
2022/01/16 20:08:35;;;;;;;25.67;3.67;;;;;;;;;;5078755;28;20093;-69
2022/01/16 20:11:03;;;;;;;24.75;3.33;;;;;;;;;;5074246;28;20052;-69
2022/01/16 20:13:31;;;;;;;26.98;4.25;;;;;;;;;;5073243;28;20056;-69
2022/01/16 20:15:59;;;;;;;25.25;5.25;;;;;;;;;;5072467;28;20079;-69
2022/01/16 20:18:27;;;;;;;22.30;2.83;;;;;;;;;;5073677;28;20059;-69
2022/01/16 20:20:55;;;;;;;23.67;2.88;;;;;;;;;;5066705;28;20071;-69
2022/01/16 20:23:22;;;;;;;22.38;2.67;;;;;;;;;;5071284;28;20089;-69
2022/01/16 20:25:50;;;;;;;23.13;3.92;;;;;;;;;;5075686;28;20883;-69
2022/01/16 20:28:18;;;;;;;27.40;3.28;;;;;;;;;;5075258;28;20060;-69
2022/01/16 20:30:46;;;;;;;27.05;2.92;;;;;;;;;;5072721;28;20049;-69
2022/01/16 20:33:13;;;;;;;30.67;4.13;;;;;;;;;;5080304;28;20109;-69
2022/01/16 20:35:41;;;;;;;29.33;4.18;;;;;;;;;;5074152;28;20044;-69
2022/01/16 20:38:09;;;;;;;23.05;3.00;;;;;;;;;;5078104;28;20563;-69
2022/01/16 20:40:37;;;;;;;27.58;3.45;;;;;;;;;;5075893;28;20059;-69
2022/01/16 20:43:06;;;;;;;21.33;4.03;;;;;;;;;;5079805;28;20064;-69
2022/01/16 20:45:34;;;;;;;23.15;2.90;;;;;;;;;;5074527;28;20048;-69
2022/01/16 20:48:01;;;;;;;20.75;3.35;;;;;;;;;;5078288;28;20059;-69
2022/01/16 20:50:29;;;;;;;21.38;2.42;;;;;;;;;;5077241;28;20052;-69
2022/01/16 20:52:56;;;;;;;29.73;3.58;;;;;;;;;;5073376;28;20093;-69
2022/01/16 20:55:24;;;;;;;23.00;2.97;;;;;;;;;;5072665;28;20075;-69
2022/01/16 20:57:52;;;;;;;21.70;2.60;;;;;;;;;;5073401;28;20134;-69
2022/01/16 21:00:21;;;;;;;24.88;2.92;;;;;;;;;;5078168;28;20051;-69
2022/01/16 21:02:48;;;;;;;23.45;3.30;;;;;;;;;;5073877;28;20063;-69
2022/01/16 21:05:15;;;;;;;23.27;2.92;;;;;;;;;;5074854;28;20056;-69
2022/01/16 21:07:43;;;;;;;24.27;3.22;;;;;;;;;;5077592;28;20407;-69
2022/01/16 21:10:10;;;;;;;24.85;3.15;;;;;;;;;;5075878;28;20055;-69
2022/01/16 21:12:38;;;;;;;23.67;3.38;;;;;;;;;;5076300;28;20075;-69
2022/01/16 21:15:06;;;;;;;24.60;3.70;;;;;;;;;;5074753;28;20052;-69
2022/01/16 21:17:36;;;;;;;22.70;3.22;;;;;;;;;;5074299;28;20052;-69
2022/01/16 21:20:05;;;;;;;26.13;3.47;;;;;;;;;;5074732;28;20048;-69
2022/01/16 21:22:32;;;;;;;23.83;3.55;;;;;;;;;;5071913;28;20136;-69
2022/01/16 21:24:59;;;;;;;26.70;3.03;;;;;;;;;;5074557;28;20056;-69
2022/01/16 21:27:26;;;;;;;25.05;3.40;;;;;;;;;;5077973;28;20070;-69
2022/01/16 21:29:53;;;;;;;24.25;3.28;;;;;;;;;;5082402;28;20073;-69
2022/01/16 21:32:21;;;;;;;29.70;3.50;;;;;;;;;;5081362;28;20055;-69
2022/01/16 21:34:50;;;;;;;27.00;3.33;;;;;;;;;;5081020;28;20047;-69
2022/01/16 21:37:20;;;;;;;19.95;3.20;;;;;;;;;;5079378;28;20051;-69
2022/01/16 21:39:48;;;;;;;30.48;5.07;;;;;;;;;;5080430;28;20141;-69
2022/01/16 21:42:16;;;;;;;24.92;3.20;;;;;;;;;;5080428;28;20048;-69
2022/01/16 21:44:44;;;;;;;23.13;3.13;;;;;;;;;;5075982;28;20048;-69
2022/01/16 21:47:11;;;;;;;19.65;3.38;;;;;;;;;;5077304;28;20048;-69
2022/01/16 21:49:38;;;;;;;28.60;2.95;;;;;;;;;;5078299;28;20449;-69
2022/01/16 21:52:11;;;;;;;26.30;3.22;;;;;;;;;;5078430;28;20127;-69
2022/01/16 21:54:39;;;;;;;18.15;3.20;;;;;;;;;;5081745;28;20514;-69
2022/01/16 21:57:06;;;;;;;26.75;4.32;;;;;;;;;;5078459;28;20050;-69
2022/01/16 21:59:33;;;;;;;24.27;3.75;;;;;;;;;;5080533;28;20048;-69
2022/01/16 22:02:01;;;;;;;21.00;3.58;;;;;;;;;;5083165;28;20069;-69
2022/01/16 22:04:30;;;;;;;21.13;3.97;;;;;;;;;;5072393;28;20048;-69
2022/01/16 22:06:57;;;;;;;25.75;4.22;;;;;;;;;;5082021;28;20396;-69
2022/01/16 22:09:26;;;;;;;26.33;3.90;;;;;;;;;;5074710;28;20067;-69
2022/01/16 22:11:59;;;;;;;28.48;4.25;;;;;;;;;;5070912;28;20133;-69
2022/01/16 22:14:27;;;;;;;21.92;3.42;;;;;;;;;;5074592;28;20057;-69
2022/01/16 22:16:55;;;;;;;24.48;3.15;;;;;;;;;;5073459;28;20052;-69
2022/01/16 22:19:23;;;;;;;24.08;3.30;;;;;;;;;;5074041;28;20052;-69
2022/01/16 22:21:50;;;;;;;22.45;3.00;;;;;;;;;;5075386;28;20052;-69
2022/01/16 22:24:17;;;;;;;28.13;3.88;;;;;;;;;;5077385;28;20534;-69
2022/01/16 22:26:46;;;;;;;29.33;3.90;;;;;;;;;;5071829;28;20044;-69
2022/01/16 22:29:14;;;;;;;33.55;3.47;;;;;;;;;;5081777;28;20084;-69
2022/01/16 22:31:41;;;;;;;28.73;3.90;;;;;;;;;;5079146;28;20048;-69
2022/01/16 22:34:09;;;;;;;26.15;3.65;;;;;;;;;;5079329;28;20071;-69
2022/01/16 22:36:36;;;;;;;21.92;3.65;;;;;;;;;;5078250;28;20060;-69
2022/01/16 22:39:04;;;;;;;25.05;3.42;;;;;;;;;;5072156;28;20055;-69
2022/01/16 22:41:31;;;;;;;21.00;3.17;;;;;;;;;;5076228;28;20135;-71
2022/01/16 22:44:00;;;;;;;28.95;3.40;;;;;;;;;;5078476;28;20424;-71
2022/01/16 22:46:28;;;;;;;25.88;3.17;;;;;;;;;;5074447;28;20483;-69
2022/01/16 22:48:56;;;;;;;26.67;3.80;;;;;;;;;;5082541;28;20051;-69
2022/01/16 22:51:24;;;;;;;25.30;2.97;;;;;;;;;;5077472;28;20070;-69
2022/01/16 22:53:52;;;;;;;21.38;2.63;;;;;;;;;;5076196;28;20044;-69
2022/01/16 22:56:19;;;;;;;23.70;3.05;;;;;;;;;;5080254;28;20112;-69
2022/01/16 22:58:46;;;;;;;24.20;3.30;;;;;;;;;;5081421;28;20105;-69
2022/01/16 23:01:15;;;;;;;27.77;3.58;;;;;;;;;;5078960;28;20049;-69
2022/01/16 23:03:42;;;;;;;31.00;4.85;;;;;;;;;;5080581;28;20055;-69
2022/01/16 23:06:09;;;;;;;30.45;3.45;;;;;;;;;;5078166;28;20062;-69
2022/01/16 23:08:36;;;;;;;29.08;3.55;;;;;;;;;;5082088;28;20082;-69
2022/01/16 23:11:04;;;;;;;18.88;3.17;;;;;;;;;;5082944;28;20047;-69
2022/01/16 23:13:31;;;;;;;25.50;3.40;;;;;;;;;;5080192;28;20056;-69
2022/01/16 23:15:59;;;;;;;25.65;3.72;;;;;;;;;;5086627;28;20052;-69
2022/01/16 23:18:27;;;;;;;22.65;3.78;;;;;;;;;;5080924;28;20047;-69
2022/01/16 23:20:56;;;;;;;30.48;4.20;;;;;;;;;;5088225;28;20059;-69
2022/01/16 23:23:24;;;;;;;25.52;3.33;;;;;;;;;;5080172;28;20056;-69
2022/01/16 23:25:51;;;;;;;23.52;3.83;;;;;;;;;;5076887;28;20093;-69
2022/01/16 23:28:20;;;;;;;25.98;3.70;;;;;;;;;;5084447;28;20503;-69
2022/01/16 23:30:47;;;;;;;26.10;4.22;;;;;;;;;;5082929;28;20071;-69
2022/01/16 23:33:14;;;;;;;23.42;2.90;;;;;;;;;;5085494;28;20052;-69
2022/01/16 23:35:44;;;;;;;22.55;3.22;;;;;;;;;;5081531;28;20068;-69
2022/01/16 23:38:11;;;;;;;28.63;3.72;;;;;;;;;;5080392;28;20407;-69
2022/01/16 23:40:39;;;;;;;17.23;3.05;;;;;;;;;;5081595;28;20056;-69
2022/01/16 23:43:08;;;;;;;33.08;4.15;;;;;;;;;;5082632;28;20066;-69
2022/01/16 23:45:36;;;;;;;22.15;3.05;;;;;;;;;;5076371;28;20052;-69
2022/01/16 23:48:04;;;;;;;51.58;4.38;;;;;;;;;;5084549;28;20052;-69
2022/01/16 23:50:32;;;;;;;33.97;3.80;;;;;;;;;;5081870;28;20055;-69
2022/01/16 23:53:01;;;;;;;31.77;3.53;;;;;;;;;;5078769;28;20049;-69
2022/01/16 23:55:28;;;;;;;26.35;3.35;;;;;;;;;;5083690;28;20052;-69
2022/01/16 23:57:56;;;;;;;29.52;3.75;;;;;;;;;;5079214;28;20384;-69
